sensor_id;sensor_type;location;lat;lon;timestamp;P1;durP1;ratioP1;P2;durP2;ratioP2
17592;SDS011;8915;51.760;14.300;2023-04-03T00:00:15;4.10;;;1.63;;
17592;SDS011;8915;51.760;14.300;2023-04-03T00:02:42;3.50;;;1.60;;
17592;SDS011;8915;51.760;14.300;2023-04-03T00:05:08;5.10;;;1.50;;
17592;SDS011;8915;51.760;14.300;2023-04-03T00:07:34;2.53;;;1.30;;
17592;SDS011;8915;51.760;14.300;2023-04-03T00:10:01;2.10;;;1.30;;
17592;SDS011;8915;51.760;14.300;2023-04-03T00:12:27;3.37;;;1.73;;
17592;SDS011;8915;51.760;14.300;2023-04-03T00:14:53;3.47;;;1.87;;
17592;SDS011;8915;51.760;14.300;2023-04-03T00:17:21;1.40;;;1.00;;
17592;SDS011;8915;51.760;14.300;2023-04-03T00:19:47;4.87;;;1.50;;
17592;SDS011;8915;51.760;14.300;2023-04-03T00:22:13;1.97;;;1.23;;
17592;SDS011;8915;51.760;14.300;2023-04-03T00:24:40;2.43;;;1.30;;
17592;SDS011;8915;51.760;14.300;2023-04-03T00:27:06;1.83;;;1.17;;
17592;SDS011;8915;51.760;14.300;2023-04-03T00:29:32;4.23;;;1.33;;
17592;SDS011;8915;51.760;14.300;2023-04-03T00:31:58;2.50;;;1.33;;
17592;SDS011;8915;51.760;14.300;2023-04-03T00:34:26;2.93;;;1.20;;
17592;SDS011;8915;51.760;14.300;2023-04-03T00:36:52;2.20;;;1.20;;
17592;SDS011;8915;51.760;14.300;2023-04-03T00:39:18;3.50;;;1.60;;
17592;SDS011;8915;51.760;14.300;2023-04-03T00:41:45;10.13;;;1.63;;
17592;SDS011;8915;51.760;14.300;2023-04-03T00:44:19;3.17;;;1.60;;
17592;SDS011;8915;51.760;14.300;2023-04-03T00:46:45;3.67;;;1.57;;
17592;SDS011;8915;51.760;14.300;2023-04-03T00:49:11;4.43;;;1.30;;
17592;SDS011;8915;51.760;14.300;2023-04-03T00:51:39;1.97;;;1.13;;
17592;SDS011;8915;51.760;14.300;2023-04-03T00:54:05;4.30;;;1.47;;
17592;SDS011;8915;51.760;14.300;2023-04-03T00:56:32;2.20;;;1.10;;
17592;SDS011;8915;51.760;14.300;2023-04-03T00:58:59;5.43;;;1.87;;
17592;SDS011;8915;51.760;14.300;2023-04-03T01:01:28;5.97;;;1.47;;
17592;SDS011;8915;51.760;14.300;2023-04-03T01:03:55;2.30;;;1.10;;
17592;SDS011;8915;51.760;14.300;2023-04-03T01:06:24;2.23;;;1.10;;
17592;SDS011;8915;51.760;14.300;2023-04-03T01:08:53;2.43;;;0.90;;
17592;SDS011;8915;51.760;14.300;2023-04-03T01:11:20;3.80;;;1.50;;
17592;SDS011;8915;51.760;14.300;2023-04-03T01:13:48;6.80;;;1.40;;
17592;SDS011;8915;51.760;14.300;2023-04-03T01:16:14;2.97;;;1.30;;
17592;SDS011;8915;51.760;14.300;2023-04-03T01:18:40;6.83;;;1.40;;
17592;SDS011;8915;51.760;14.300;2023-04-03T01:21:11;3.67;;;1.30;;
17592;SDS011;8915;51.760;14.300;2023-04-03T01:23:46;4.23;;;1.20;;
17592;SDS011;8915;51.760;14.300;2023-04-03T01:26:16;5.20;;;1.43;;
17592;SDS011;8915;51.760;14.300;2023-04-03T01:28:42;4.20;;;1.37;;
17592;SDS011;8915;51.760;14.300;2023-04-03T01:31:11;3.00;;;1.17;;
17592;SDS011;8915;51.760;14.300;2023-04-03T01:33:41;7.20;;;1.23;;
17592;SDS011;8915;51.760;14.300;2023-04-03T01:36:08;3.67;;;1.33;;
17592;SDS011;8915;51.760;14.300;2023-04-03T01:38:34;1.80;;;1.30;;
17592;SDS011;8915;51.760;14.300;2023-04-03T01:41:01;6.80;;;1.40;;
17592;SDS011;8915;51.760;14.300;2023-04-03T01:43:28;3.30;;;1.20;;
17592;SDS011;8915;51.760;14.300;2023-04-03T01:45:54;3.97;;;1.63;;
17592;SDS011;8915;51.760;14.300;2023-04-03T01:48:20;7.97;;;1.20;;
17592;SDS011;8915;51.760;14.300;2023-04-03T01:50:48;2.80;;;1.37;;
17592;SDS011;8915;51.760;14.300;2023-04-03T01:53:14;3.10;;;1.50;;
17592;SDS011;8915;51.760;14.300;2023-04-03T01:55:41;6.13;;;1.37;;
17592;SDS011;8915;51.760;14.300;2023-04-03T01:58:07;1.83;;;1.10;;
17592;SDS011;8915;51.760;14.300;2023-04-03T02:00:33;2.30;;;1.20;;
17592;SDS011;8915;51.760;14.300;2023-04-03T02:03:00;7.03;;;2.00;;
17592;SDS011;8915;51.760;14.300;2023-04-03T02:05:28;6.80;;;1.57;;
17592;SDS011;8915;51.760;14.300;2023-04-03T02:07:57;6.10;;;1.80;;
17592;SDS011;8915;51.760;14.300;2023-04-03T02:10:24;3.37;;;1.40;;
17592;SDS011;8915;51.760;14.300;2023-04-03T02:12:50;1.20;;;1.10;;
17592;SDS011;8915;51.760;14.300;2023-04-03T02:15:18;3.77;;;1.40;;
17592;SDS011;8915;51.760;14.300;2023-04-03T02:17:44;3.53;;;1.50;;
17592;SDS011;8915;51.760;14.300;2023-04-03T02:20:10;6.80;;;1.60;;
17592;SDS011;8915;51.760;14.300;2023-04-03T02:22:37;2.30;;;1.40;;
17592;SDS011;8915;51.760;14.300;2023-04-03T02:25:04;3.40;;;1.30;;
17592;SDS011;8915;51.760;14.300;2023-04-03T02:27:31;5.20;;;1.30;;
17592;SDS011;8915;51.760;14.300;2023-04-03T02:29:57;4.20;;;1.50;;
17592;SDS011;8915;51.760;14.300;2023-04-03T02:32:24;4.30;;;1.60;;
17592;SDS011;8915;51.760;14.300;2023-04-03T02:34:50;2.63;;;1.07;;
17592;SDS011;8915;51.760;14.300;2023-04-03T02:37:16;6.50;;;1.50;;
17592;SDS011;8915;51.760;14.300;2023-04-03T02:39:45;8.00;;;1.77;;
17592;SDS011;8915;51.760;14.300;2023-04-03T02:42:12;4.50;;;1.40;;
17592;SDS011;8915;51.760;14.300;2023-04-03T02:44:39;4.07;;;1.23;;
17592;SDS011;8915;51.760;14.300;2023-04-03T02:47:05;6.17;;;1.43;;
17592;SDS011;8915;51.760;14.300;2023-04-03T02:49:32;3.57;;;1.30;;
17592;SDS011;8915;51.760;14.300;2023-04-03T02:51:58;4.27;;;1.47;;
17592;SDS011;8915;51.760;14.300;2023-04-03T02:54:24;1.73;;;1.40;;
17592;SDS011;8915;51.760;14.300;2023-04-03T02:56:54;3.23;;;0.90;;
17592;SDS011;8915;51.760;14.300;2023-04-03T02:59:22;3.70;;;1.50;;
17592;SDS011;8915;51.760;14.300;2023-04-03T03:01:48;2.70;;;1.40;;
17592;SDS011;8915;51.760;14.300;2023-04-03T03:04:14;9.67;;;1.17;;
17592;SDS011;8915;51.760;14.300;2023-04-03T03:06:41;3.27;;;1.17;;
17592;SDS011;8915;51.760;14.300;2023-04-03T03:09:07;4.87;;;1.53;;
17592;SDS011;8915;51.760;14.300;2023-04-03T03:11:33;5.50;;;1.23;;
17592;SDS011;8915;51.760;14.300;2023-04-03T03:14:01;2.00;;;1.40;;
17592;SDS011;8915;51.760;14.300;2023-04-03T03:16:29;2.10;;;1.10;;
17592;SDS011;8915;51.760;14.300;2023-04-03T03:18:55;4.67;;;1.23;;
17592;SDS011;8915;51.760;14.300;2023-04-03T03:21:22;4.23;;;1.27;;
17592;SDS011;8915;51.760;14.300;2023-04-03T03:23:48;3.87;;;1.00;;
17592;SDS011;8915;51.760;14.300;2023-04-03T03:26:14;2.13;;;1.23;;
17592;SDS011;8915;51.760;14.300;2023-04-03T03:28:40;6.47;;;1.40;;
17592;SDS011;8915;51.760;14.300;2023-04-03T03:31:08;3.57;;;1.47;;
17592;SDS011;8915;51.760;14.300;2023-04-03T03:33:38;5.87;;;1.30;;
17592;SDS011;8915;51.760;14.300;2023-04-03T03:36:04;3.43;;;1.40;;
17592;SDS011;8915;51.760;14.300;2023-04-03T03:38:30;1.67;;;1.20;;
17592;SDS011;8915;51.760;14.300;2023-04-03T03:40:58;1.27;;;0.93;;
17592;SDS011;8915;51.760;14.300;2023-04-03T03:43:25;2.20;;;1.20;;
17592;SDS011;8915;51.760;14.300;2023-04-03T03:45:53;1.43;;;1.20;;
17592;SDS011;8915;51.760;14.300;2023-04-03T03:48:21;2.90;;;1.40;;
17592;SDS011;8915;51.760;14.300;2023-04-03T03:50:49;3.00;;;1.30;;
17592;SDS011;8915;51.760;14.300;2023-04-03T03:53:17;2.20;;;1.07;;
17592;SDS011;8915;51.760;14.300;2023-04-03T03:55:44;3.47;;;1.33;;
17592;SDS011;8915;51.760;14.300;2023-04-03T03:58:11;2.13;;;1.10;;
17592;SDS011;8915;51.760;14.300;2023-04-03T04:00:37;2.97;;;1.23;;
17592;SDS011;8915;51.760;14.300;2023-04-03T04:03:04;6.97;;;1.37;;
17592;SDS011;8915;51.760;14.300;2023-04-03T04:05:30;1.20;;;1.10;;
17592;SDS011;8915;51.760;14.300;2023-04-03T04:08:00;3.67;;;1.13;;
17592;SDS011;8915;51.760;14.300;2023-04-03T04:10:27;4.30;;;1.07;;
17592;SDS011;8915;51.760;14.300;2023-04-03T04:12:54;3.10;;;1.40;;
17592;SDS011;8915;51.760;14.300;2023-04-03T04:15:23;3.30;;;1.53;;
17592;SDS011;8915;51.760;14.300;2023-04-03T04:17:51;5.27;;;1.67;;
17592;SDS011;8915;51.760;14.300;2023-04-03T04:20:18;4.27;;;1.30;;
17592;SDS011;8915;51.760;14.300;2023-04-03T04:22:46;1.30;;;1.10;;
17592;SDS011;8915;51.760;14.300;2023-04-03T04:25:14;1.70;;;1.37;;
17592;SDS011;8915;51.760;14.300;2023-04-03T04:27:40;1.50;;;1.17;;
17592;SDS011;8915;51.760;14.300;2023-04-03T04:30:07;8.43;;;1.40;;
17592;SDS011;8915;51.760;14.300;2023-04-03T04:32:34;2.93;;;1.53;;
17592;SDS011;8915;51.760;14.300;2023-04-03T04:35:00;3.03;;;1.20;;
17592;SDS011;8915;51.760;14.300;2023-04-03T04:37:28;4.73;;;1.50;;
17592;SDS011;8915;51.760;14.300;2023-04-03T04:39:56;3.97;;;1.93;;
17592;SDS011;8915;51.760;14.300;2023-04-03T04:42:24;5.40;;;1.33;;
17592;SDS011;8915;51.760;14.300;2023-04-03T04:44:50;4.30;;;1.30;;
17592;SDS011;8915;51.760;14.300;2023-04-03T04:47:18;2.77;;;1.30;;
17592;SDS011;8915;51.760;14.300;2023-04-03T04:49:44;1.87;;;1.17;;
17592;SDS011;8915;51.760;14.300;2023-04-03T04:52:13;3.57;;;1.27;;
17592;SDS011;8915;51.760;14.300;2023-04-03T04:54:40;4.43;;;1.83;;
17592;SDS011;8915;51.760;14.300;2023-04-03T04:57:07;6.90;;;3.30;;
17592;SDS011;8915;51.760;14.300;2023-04-03T04:59:35;3.40;;;2.20;;
17592;SDS011;8915;51.760;14.300;2023-04-03T05:02:02;4.43;;;2.53;;
17592;SDS011;8915;51.760;14.300;2023-04-03T05:04:29;3.27;;;1.30;;
17592;SDS011;8915;51.760;14.300;2023-04-03T05:07:02;3.17;;;1.57;;
17592;SDS011;8915;51.760;14.300;2023-04-03T05:09:30;3.77;;;1.43;;
17592;SDS011;8915;51.760;14.300;2023-04-03T05:11:57;2.60;;;1.70;;
17592;SDS011;8915;51.760;14.300;2023-04-03T05:14:26;9.93;;;1.97;;
17592;SDS011;8915;51.760;14.300;2023-04-03T05:16:59;5.57;;;1.63;;
17592;SDS011;8915;51.760;14.300;2023-04-03T05:19:29;5.27;;;1.60;;
17592;SDS011;8915;51.760;14.300;2023-04-03T05:21:57;3.17;;;1.70;;
17592;SDS011;8915;51.760;14.300;2023-04-03T05:24:23;5.83;;;1.67;;
17592;SDS011;8915;51.760;14.300;2023-04-03T05:26:51;4.83;;;1.60;;
17592;SDS011;8915;51.760;14.300;2023-04-03T05:29:17;1.80;;;1.10;;
17592;SDS011;8915;51.760;14.300;2023-04-03T05:31:45;3.07;;;1.63;;
17592;SDS011;8915;51.760;14.300;2023-04-03T05:34:13;4.90;;;1.70;;
17592;SDS011;8915;51.760;14.300;2023-04-03T05:36:40;11.40;;;1.53;;
17592;SDS011;8915;51.760;14.300;2023-04-03T05:39:13;7.50;;;1.10;;
17592;SDS011;8915;51.760;14.300;2023-04-03T05:41:42;8.53;;;1.90;;
17592;SDS011;8915;51.760;14.300;2023-04-03T05:44:08;3.47;;;1.77;;
17592;SDS011;8915;51.760;14.300;2023-04-03T05:46:35;5.80;;;1.40;;
17592;SDS011;8915;51.760;14.300;2023-04-03T05:49:05;3.70;;;1.40;;
17592;SDS011;8915;51.760;14.300;2023-04-03T05:51:35;10.47;;;2.23;;
17592;SDS011;8915;51.760;14.300;2023-04-03T05:54:17;7.13;;;1.70;;
17592;SDS011;8915;51.760;14.300;2023-04-03T05:56:45;6.80;;;1.90;;
17592;SDS011;8915;51.760;14.300;2023-04-03T05:59:12;5.63;;;1.37;;
17592;SDS011;8915;51.760;14.300;2023-04-03T06:01:39;1.80;;;1.50;;
17592;SDS011;8915;51.760;14.300;2023-04-03T06:04:05;3.73;;;1.60;;
17592;SDS011;8915;51.760;14.300;2023-04-03T06:06:45;6.00;;;1.30;;
17592;SDS011;8915;51.760;14.300;2023-04-03T06:09:12;5.40;;;1.63;;
17592;SDS011;8915;51.760;14.300;2023-04-03T06:11:38;4.07;;;1.37;;
17592;SDS011;8915;51.760;14.300;2023-04-03T06:14:05;1.97;;;1.10;;
17592;SDS011;8915;51.760;14.300;2023-04-03T06:16:34;5.00;;;1.53;;
17592;SDS011;8915;51.760;14.300;2023-04-03T06:19:00;3.03;;;1.27;;
17592;SDS011;8915;51.760;14.300;2023-04-03T06:21:27;3.70;;;1.23;;
17592;SDS011;8915;51.760;14.300;2023-04-03T06:23:55;2.87;;;1.10;;
17592;SDS011;8915;51.760;14.300;2023-04-03T06:26:21;1.33;;;0.90;;
17592;SDS011;8915;51.760;14.300;2023-04-03T06:28:47;3.50;;;1.20;;
17592;SDS011;8915;51.760;14.300;2023-04-03T06:31:14;1.80;;;1.00;;
17592;SDS011;8915;51.760;14.300;2023-04-03T06:33:40;5.80;;;1.07;;
17592;SDS011;8915;51.760;14.300;2023-04-03T06:36:07;0.90;;;0.77;;
17592;SDS011;8915;51.760;14.300;2023-04-03T06:38:34;3.67;;;1.17;;
17592;SDS011;8915;51.760;14.300;2023-04-03T06:41:02;5.63;;;1.47;;
17592;SDS011;8915;51.760;14.300;2023-04-03T06:43:28;3.80;;;1.00;;
17592;SDS011;8915;51.760;14.300;2023-04-03T06:45:56;3.60;;;1.00;;
17592;SDS011;8915;51.760;14.300;2023-04-03T06:48:22;1.73;;;1.00;;
17592;SDS011;8915;51.760;14.300;2023-04-03T06:50:48;3.17;;;0.90;;
17592;SDS011;8915;51.760;14.300;2023-04-03T06:53:15;1.57;;;0.97;;
17592;SDS011;8915;51.760;14.300;2023-04-03T06:55:41;3.87;;;1.23;;
17592;SDS011;8915;51.760;14.300;2023-04-03T06:58:09;2.60;;;1.30;;
17592;SDS011;8915;51.760;14.300;2023-04-03T07:00:35;6.00;;;0.87;;
17592;SDS011;8915;51.760;14.300;2023-04-03T07:03:01;2.73;;;1.10;;
17592;SDS011;8915;51.760;14.300;2023-04-03T07:05:27;2.93;;;1.00;;
17592;SDS011;8915;51.760;14.300;2023-04-03T07:07:54;4.40;;;0.90;;
17592;SDS011;8915;51.760;14.300;2023-04-03T07:10:20;1.73;;;0.73;;
17592;SDS011;8915;51.760;14.300;2023-04-03T07:12:46;1.20;;;0.77;;
17592;SDS011;8915;51.760;14.300;2023-04-03T07:15:14;3.43;;;0.97;;
17592;SDS011;8915;51.760;14.300;2023-04-03T07:17:40;5.37;;;0.90;;
17592;SDS011;8915;51.760;14.300;2023-04-03T07:20:07;2.03;;;1.13;;
17592;SDS011;8915;51.760;14.300;2023-04-03T07:22:33;2.63;;;1.07;;
17592;SDS011;8915;51.760;14.300;2023-04-03T07:25:00;3.63;;;1.20;;
17592;SDS011;8915;51.760;14.300;2023-04-03T07:27:26;8.63;;;1.33;;
17592;SDS011;8915;51.760;14.300;2023-04-03T07:29:52;1.33;;;0.87;;
17592;SDS011;8915;51.760;14.300;2023-04-03T07:32:22;1.10;;;1.00;;
17592;SDS011;8915;51.760;14.300;2023-04-03T07:34:48;1.60;;;0.80;;
17592;SDS011;8915;51.760;14.300;2023-04-03T07:37:14;1.17;;;1.07;;
17592;SDS011;8915;51.760;14.300;2023-04-03T07:39:43;4.20;;;0.90;;
17592;SDS011;8915;51.760;14.300;2023-04-03T07:42:09;5.30;;;1.13;;
17592;SDS011;8915;51.760;14.300;2023-04-03T07:44:37;1.60;;;0.77;;
17592;SDS011;8915;51.760;14.300;2023-04-03T07:47:03;4.43;;;1.00;;
17592;SDS011;8915;51.760;14.300;2023-04-03T07:49:31;1.80;;;0.80;;
17592;SDS011;8915;51.760;14.300;2023-04-03T07:51:57;4.00;;;0.80;;
17592;SDS011;8915;51.760;14.300;2023-04-03T07:54:24;1.00;;;0.73;;
17592;SDS011;8915;51.760;14.300;2023-04-03T07:56:50;0.90;;;0.70;;
17592;SDS011;8915;51.760;14.300;2023-04-03T07:59:16;1.17;;;0.80;;
17592;SDS011;8915;51.760;14.300;2023-04-03T08:01:42;2.57;;;0.80;;
17592;SDS011;8915;51.760;14.300;2023-04-03T08:04:09;2.00;;;0.93;;
17592;SDS011;8915;51.760;14.300;2023-04-03T08:06:36;1.43;;;0.93;;
17592;SDS011;8915;51.760;14.300;2023-04-03T08:09:03;3.90;;;1.03;;
17592;SDS011;8915;51.760;14.300;2023-04-03T08:11:29;1.10;;;0.83;;
17592;SDS011;8915;51.760;14.300;2023-04-03T08:13:56;1.50;;;0.90;;
17592;SDS011;8915;51.760;14.300;2023-04-03T08:16:23;3.87;;;1.47;;
17592;SDS011;8915;51.760;14.300;2023-04-03T08:18:51;1.80;;;1.00;;
17592;SDS011;8915;51.760;14.300;2023-04-03T08:21:18;3.63;;;0.63;;
17592;SDS011;8915;51.760;14.300;2023-04-03T08:23:47;3.63;;;1.00;;
17592;SDS011;8915;51.760;14.300;2023-04-03T08:26:15;3.20;;;0.70;;
17592;SDS011;8915;51.760;14.300;2023-04-03T08:28:41;2.47;;;0.80;;
17592;SDS011;8915;51.760;14.300;2023-04-03T08:31:09;4.07;;;1.27;;
17592;SDS011;8915;51.760;14.300;2023-04-03T08:33:37;3.13;;;0.80;;
17592;SDS011;8915;51.760;14.300;2023-04-03T08:36:04;1.73;;;0.70;;
17592;SDS011;8915;51.760;14.300;2023-04-03T08:38:31;1.50;;;0.77;;
17592;SDS011;8915;51.760;14.300;2023-04-03T08:41:04;1.73;;;0.90;;
17592;SDS011;8915;51.760;14.300;2023-04-03T08:43:33;3.33;;;0.90;;
17592;SDS011;8915;51.760;14.300;2023-04-03T08:46:03;1.07;;;0.73;;
17592;SDS011;8915;51.760;14.300;2023-04-03T08:48:31;1.73;;;1.00;;
17592;SDS011;8915;51.760;14.300;2023-04-03T08:50:59;3.20;;;1.33;;
17592;SDS011;8915;51.760;14.300;2023-04-03T08:53:28;0.73;;;0.53;;
17592;SDS011;8915;51.760;14.300;2023-04-03T08:55:57;2.93;;;0.70;;
17592;SDS011;8915;51.760;14.300;2023-04-03T08:58:25;1.73;;;0.57;;
17592;SDS011;8915;51.760;14.300;2023-04-03T09:00:54;2.47;;;0.80;;
17592;SDS011;8915;51.760;14.300;2023-04-03T09:03:21;1.73;;;1.03;;
17592;SDS011;8915;51.760;14.300;2023-04-03T09:05:48;1.20;;;0.83;;
17592;SDS011;8915;51.760;14.300;2023-04-03T09:08:26;1.67;;;0.87;;
17592;SDS011;8915;51.760;14.300;2023-04-03T09:10:57;1.23;;;0.73;;
17592;SDS011;8915;51.760;14.300;2023-04-03T09:13:26;1.77;;;0.73;;
17592;SDS011;8915;51.760;14.300;2023-04-03T09:15:54;4.33;;;1.07;;
17592;SDS011;8915;51.760;14.300;2023-04-03T09:18:23;1.00;;;0.60;;
17592;SDS011;8915;51.760;14.300;2023-04-03T09:20:53;0.80;;;0.70;;
17592;SDS011;8915;51.760;14.300;2023-04-03T09:23:23;1.83;;;0.97;;
17592;SDS011;8915;51.760;14.300;2023-04-03T09:25:51;0.67;;;0.67;;
17592;SDS011;8915;51.760;14.300;2023-04-03T09:28:19;2.57;;;0.80;;
17592;SDS011;8915;51.760;14.300;2023-04-03T09:30:46;1.17;;;0.70;;
17592;SDS011;8915;51.760;14.300;2023-04-03T09:33:13;2.10;;;1.00;;
17592;SDS011;8915;51.760;14.300;2023-04-03T09:35:40;3.60;;;0.97;;
17592;SDS011;8915;51.760;14.300;2023-04-03T09:38:17;0.83;;;0.60;;
17592;SDS011;8915;51.760;14.300;2023-04-03T09:40:44;1.77;;;0.97;;
17592;SDS011;8915;51.760;14.300;2023-04-03T09:46:18;0.80;;;0.80;;
17592;SDS011;8915;51.760;14.300;2023-04-03T09:48:50;2.30;;;0.80;;
17592;SDS011;8915;51.760;14.300;2023-04-03T09:51:17;1.53;;;1.03;;
17592;SDS011;8915;51.760;14.300;2023-04-03T09:53:43;1.00;;;0.80;;
17592;SDS011;8915;51.760;14.300;2023-04-03T09:56:18;2.87;;;0.90;;
17592;SDS011;8915;51.760;14.300;2023-04-03T09:58:45;1.57;;;1.00;;
17592;SDS011;8915;51.760;14.300;2023-04-03T10:01:22;1.77;;;0.57;;
17592;SDS011;8915;51.760;14.300;2023-04-03T10:04:01;2.00;;;0.67;;
17592;SDS011;8915;51.760;14.300;2023-04-03T10:06:29;1.30;;;0.80;;
17592;SDS011;8915;51.760;14.300;2023-04-03T10:08:58;2.13;;;0.80;;
17592;SDS011;8915;51.760;14.300;2023-04-03T10:11:24;3.80;;;0.90;;
17592;SDS011;8915;51.760;14.300;2023-04-03T10:13:52;1.10;;;0.70;;
17592;SDS011;8915;51.760;14.300;2023-04-03T10:16:22;1.83;;;0.90;;
17592;SDS011;8915;51.760;14.300;2023-04-03T10:18:51;2.37;;;1.00;;
17592;SDS011;8915;51.760;14.300;2023-04-03T10:21:25;1.03;;;0.80;;
17592;SDS011;8915;51.760;14.300;2023-04-03T10:23:56;2.17;;;0.90;;
17592;SDS011;8915;51.760;14.300;2023-04-03T10:26:28;1.83;;;0.70;;
17592;SDS011;8915;51.760;14.300;2023-04-03T10:28:56;2.77;;;1.00;;
17592;SDS011;8915;51.760;14.300;2023-04-03T10:31:25;0.53;;;0.53;;
17592;SDS011;8915;51.760;14.300;2023-04-03T10:33:56;1.97;;;0.97;;
17592;SDS011;8915;51.760;14.300;2023-04-03T10:36:29;1.40;;;0.80;;
17592;SDS011;8915;51.760;14.300;2023-04-03T10:39:01;1.93;;;0.50;;
17592;SDS011;8915;51.760;14.300;2023-04-03T10:41:30;2.17;;;0.90;;
17592;SDS011;8915;51.760;14.300;2023-04-03T10:44:04;1.07;;;0.90;;
17592;SDS011;8915;51.760;14.300;2023-04-03T10:46:35;1.07;;;0.77;;
17592;SDS011;8915;51.760;14.300;2023-04-03T10:49:10;3.10;;;0.70;;
17592;SDS011;8915;51.760;14.300;2023-04-03T10:51:39;0.97;;;0.87;;
17592;SDS011;8915;51.760;14.300;2023-04-03T10:54:08;1.50;;;0.70;;
17592;SDS011;8915;51.760;14.300;2023-04-03T10:56:36;0.93;;;0.60;;
17592;SDS011;8915;51.760;14.300;2023-04-03T10:59:08;0.90;;;0.50;;
17592;SDS011;8915;51.760;14.300;2023-04-03T11:01:41;0.93;;;0.60;;
17592;SDS011;8915;51.760;14.300;2023-04-03T11:04:08;1.43;;;0.80;;
17592;SDS011;8915;51.760;14.300;2023-04-03T11:06:37;1.33;;;0.80;;
17592;SDS011;8915;51.760;14.300;2023-04-03T11:09:07;1.97;;;0.80;;
17592;SDS011;8915;51.760;14.300;2023-04-03T11:11:36;1.20;;;0.80;;
17592;SDS011;8915;51.760;14.300;2023-04-03T11:14:05;1.90;;;0.90;;
17592;SDS011;8915;51.760;14.300;2023-04-03T11:16:38;1.63;;;0.90;;
17592;SDS011;8915;51.760;14.300;2023-04-03T11:19:10;1.10;;;0.90;;
17592;SDS011;8915;51.760;14.300;2023-04-03T11:21:39;2.10;;;0.90;;
17592;SDS011;8915;51.760;14.300;2023-04-03T11:24:11;3.17;;;0.70;;
17592;SDS011;8915;51.760;14.300;2023-04-03T11:26:44;3.47;;;1.40;;
17592;SDS011;8915;51.760;14.300;2023-04-03T11:29:11;1.00;;;0.70;;
17592;SDS011;8915;51.760;14.300;2023-04-03T11:31:42;1.97;;;1.00;;
17592;SDS011;8915;51.760;14.300;2023-04-03T11:34:17;3.70;;;1.13;;
17592;SDS011;8915;51.760;14.300;2023-04-03T11:36:46;1.23;;;0.80;;
17592;SDS011;8915;51.760;14.300;2023-04-03T11:39:16;1.53;;;0.90;;
17592;SDS011;8915;51.760;14.300;2023-04-03T11:41:45;1.73;;;0.80;;
17592;SDS011;8915;51.760;14.300;2023-04-03T11:44:25;0.90;;;0.70;;
17592;SDS011;8915;51.760;14.300;2023-04-03T11:46:55;4.73;;;1.10;;
17592;SDS011;8915;51.760;14.300;2023-04-03T11:52:10;1.67;;;0.77;;
17592;SDS011;8915;51.760;14.300;2023-04-03T11:54:45;1.20;;;0.70;;
17592;SDS011;8915;51.760;14.300;2023-04-03T11:59:57;1.70;;;0.90;;
17592;SDS011;8915;51.760;14.300;2023-04-03T12:02:36;3.73;;;0.93;;
17592;SDS011;8915;51.760;14.300;2023-04-03T12:07:57;1.20;;;0.80;;
17592;SDS011;8915;51.760;14.300;2023-04-03T12:10:41;1.63;;;0.70;;
17592;SDS011;8915;51.760;14.300;2023-04-03T12:13:13;1.60;;;0.70;;
17592;SDS011;8915;51.760;14.300;2023-04-03T12:15:44;1.10;;;0.70;;
17592;SDS011;8915;51.760;14.300;2023-04-03T12:21:15;3.27;;;1.00;;
17592;SDS011;8915;51.760;14.300;2023-04-03T12:23:57;0.80;;;0.70;;
17592;SDS011;8915;51.760;14.300;2023-04-03T12:26:24;4.53;;;1.50;;
17592;SDS011;8915;51.760;14.300;2023-04-03T12:28:53;1.97;;;0.97;;
17592;SDS011;8915;51.760;14.300;2023-04-03T12:31:20;3.70;;;1.10;;
17592;SDS011;8915;51.760;14.300;2023-04-03T12:33:56;1.60;;;0.90;;
17592;SDS011;8915;51.760;14.300;2023-04-03T12:36:26;2.23;;;1.00;;
17592;SDS011;8915;51.760;14.300;2023-04-03T12:39:02;2.03;;;1.13;;
17592;SDS011;8915;51.760;14.300;2023-04-03T12:41:36;1.37;;;0.73;;
17592;SDS011;8915;51.760;14.300;2023-04-03T12:44:17;4.73;;;1.37;;
17592;SDS011;8915;51.760;14.300;2023-04-03T12:46:45;1.67;;;0.90;;
17592;SDS011;8915;51.760;14.300;2023-04-03T12:49:17;0.97;;;0.80;;
17592;SDS011;8915;51.760;14.300;2023-04-03T12:51:46;4.57;;;1.40;;
17592;SDS011;8915;51.760;14.300;2023-04-03T12:54:15;3.57;;;1.40;;
17592;SDS011;8915;51.760;14.300;2023-04-03T12:56:42;5.40;;;0.90;;
17592;SDS011;8915;51.760;14.300;2023-04-03T12:59:13;1.53;;;0.90;;
17592;SDS011;8915;51.760;14.300;2023-04-03T13:01:39;1.27;;;0.73;;
17592;SDS011;8915;51.760;14.300;2023-04-03T13:04:05;2.80;;;1.00;;
17592;SDS011;8915;51.760;14.300;2023-04-03T13:06:34;5.53;;;2.03;;
17592;SDS011;8915;51.760;14.300;2023-04-03T13:09:01;1.07;;;0.87;;
17592;SDS011;8915;51.760;14.300;2023-04-03T13:11:30;0.87;;;0.70;;
17592;SDS011;8915;51.760;14.300;2023-04-03T13:13:57;0.73;;;0.63;;
17592;SDS011;8915;51.760;14.300;2023-04-03T13:16:23;2.03;;;0.90;;
17592;SDS011;8915;51.760;14.300;2023-04-03T13:18:50;1.33;;;0.90;;
17592;SDS011;8915;51.760;14.300;2023-04-03T13:21:17;0.77;;;0.70;;
17592;SDS011;8915;51.760;14.300;2023-04-03T13:23:45;1.23;;;0.77;;
17592;SDS011;8915;51.760;14.300;2023-04-03T13:26:11;1.73;;;1.00;;
17592;SDS011;8915;51.760;14.300;2023-04-03T13:28:40;2.57;;;1.23;;
17592;SDS011;8915;51.760;14.300;2023-04-03T13:31:07;1.53;;;0.90;;
17592;SDS011;8915;51.760;14.300;2023-04-03T13:33:35;1.20;;;1.07;;
17592;SDS011;8915;51.760;14.300;2023-04-03T13:36:06;1.30;;;1.03;;
17592;SDS011;8915;51.760;14.300;2023-04-03T13:38:33;2.13;;;0.83;;
17592;SDS011;8915;51.760;14.300;2023-04-03T13:41:02;0.97;;;0.80;;
17592;SDS011;8915;51.760;14.300;2023-04-03T13:43:30;3.03;;;0.90;;
17592;SDS011;8915;51.760;14.300;2023-04-03T13:46:03;1.40;;;0.90;;
17592;SDS011;8915;51.760;14.300;2023-04-03T13:48:37;1.57;;;0.63;;
17592;SDS011;8915;51.760;14.300;2023-04-03T13:51:05;1.07;;;0.60;;
17592;SDS011;8915;51.760;14.300;2023-04-03T13:53:32;1.20;;;0.80;;
17592;SDS011;8915;51.760;14.300;2023-04-03T13:56:04;2.83;;;1.90;;
17592;SDS011;8915;51.760;14.300;2023-04-03T13:58:31;0.77;;;0.67;;
17592;SDS011;8915;51.760;14.300;2023-04-03T14:01:00;0.70;;;0.70;;
17592;SDS011;8915;51.760;14.300;2023-04-03T14:03:32;0.60;;;0.60;;
17592;SDS011;8915;51.760;14.300;2023-04-03T14:05:58;1.47;;;0.70;;
17592;SDS011;8915;51.760;14.300;2023-04-03T14:08:26;0.77;;;0.77;;
17592;SDS011;8915;51.760;14.300;2023-04-03T14:10:53;0.73;;;0.60;;
17592;SDS011;8915;51.760;14.300;2023-04-03T14:13:20;2.17;;;0.70;;
17592;SDS011;8915;51.760;14.300;2023-04-03T14:15:46;1.70;;;0.87;;
17592;SDS011;8915;51.760;14.300;2023-04-03T14:18:14;0.67;;;0.60;;
17592;SDS011;8915;51.760;14.300;2023-04-03T14:20:42;1.80;;;0.70;;
17592;SDS011;8915;51.760;14.300;2023-04-03T14:23:09;0.90;;;0.70;;
17592;SDS011;8915;51.760;14.300;2023-04-03T14:25:35;0.90;;;0.70;;
17592;SDS011;8915;51.760;14.300;2023-04-03T14:28:07;2.83;;;1.20;;
17592;SDS011;8915;51.760;14.300;2023-04-03T14:30:38;1.03;;;0.90;;
17592;SDS011;8915;51.760;14.300;2023-04-03T14:33:05;0.97;;;0.93;;
17592;SDS011;8915;51.760;14.300;2023-04-03T14:35:32;3.30;;;0.93;;
17592;SDS011;8915;51.760;14.300;2023-04-03T14:37:59;1.13;;;0.97;;
17592;SDS011;8915;51.760;14.300;2023-04-03T14:40:26;2.63;;;0.80;;
17592;SDS011;8915;51.760;14.300;2023-04-03T14:42:53;1.20;;;0.90;;
17592;SDS011;8915;51.760;14.300;2023-04-03T14:45:20;2.60;;;1.27;;
17592;SDS011;8915;51.760;14.300;2023-04-03T14:47:48;1.87;;;1.00;;
17592;SDS011;8915;51.760;14.300;2023-04-03T14:50:16;1.20;;;0.90;;
17592;SDS011;8915;51.760;14.300;2023-04-03T14:52:42;1.83;;;0.80;;
17592;SDS011;8915;51.760;14.300;2023-04-03T14:55:12;1.13;;;1.00;;
17592;SDS011;8915;51.760;14.300;2023-04-03T14:57:39;1.47;;;1.00;;
17592;SDS011;8915;51.760;14.300;2023-04-03T15:00:07;3.03;;;0.90;;
17592;SDS011;8915;51.760;14.300;2023-04-03T15:02:34;1.43;;;0.97;;
17592;SDS011;8915;51.760;14.300;2023-04-03T15:05:01;2.40;;;1.00;;
17592;SDS011;8915;51.760;14.300;2023-04-03T15:07:29;2.87;;;2.03;;